Fair River, Mississippi
Current Conditions -  °F | °C
As of 11:15 AM on Sunday 23 Nov 2014 (Local Time) from K1R7 Reporting Station
Broken Clouds Broken Clouds  
Wind Chill: 66°   Ceiling: 2400
Heat Index: 66°   Visibility: 10mi
Dew Point: 61°   Wind: 16mph
Humidity: 83%   Direction: 200°SSW
Pressure: 29.62"   Gusts: 25mph
Location:  31.5898°N, 90.4722°W
Report Text: K1R7 231715Z AUTO 20014G22KT 10SM SCT019 BKN024 BKN029 19/16 A2962 RMK AO2
Loading
Personal Weather Stations






























Interactive Weather Map New forecast layout! Learn more

10-Day Weather Forecast

Advertisements
Track Severe Weather on mobile